Jordan Valley, OR (97910)

8:06 PM MST on January 23, 2017 (GMT -0700)
Caldwell Industrial | | Change Station

Elev 2431 ft 43.64 °N, 116.64 °W | Updated 10 minutes ago

Overcast
Overcast
29 °F
Feels Like 21 °F
N
8
Wind Variable Wind from West

Today
High -- | Low -- °F
--% Chance of Precip.
Yesterday
High -- | Low -- °F
Precip. -- in
Pressure 29.78 in
Visibility 10.0 miles
Clouds Overcast 12000 ft
Windchill 21 °F
Dew Point 25 °F
Humidity 85%
Rainfall 0.01 in
Snow Depth Not available.
8:11 AM 5:49 PM
Waning Crescent, 14% visible
METAR KEUL 240256Z AUTO 27007KT 10SM OVC120 M02/M04 A2972 RMK AO2 SLP084 T10171039 51013 FZRANO
Pressure 29.78 in
Visibility 10.0 miles
Clouds Overcast 12000 ft
Windchill 21 °F
Dew Point 25 °F
Humidity 85%
Rainfall 0.01 in
Snow Depth Not available.
8:11 AM 5:49 PM
Waning Crescent, 14% visible
METAR KEUL 240256Z AUTO 27007KT 10SM OVC120 M02/M04 A2972 RMK AO2 SLP084 T10171039 51013 FZRANO

Get Your Daily Forecast Email!

Thanks for signing up!

Be on the lookout for a verification email in your inbox.

You'll start receiving the daily forecast at 8 AM.

×

10-Day Weather Forecast

Almanac

Astronomy

Jan. 23, 2017 Rise Set
Actual Time
Civil Twilight
Nautical Twilight
Astronomical Twilight
Moon
Length of Visible Light
Length of Day
Tomorrow will be .
, % of the Moon is Illuminated

Today's Extremes

State Highs State Lows

Community

WunderPhotos

Upload Photos

1,962,540 photos uploaded!

WunderBlog® & News

Nearby

Air Quality

  Air Quality AQ Index Pollutant
Not available.

Snow Depth

Station Depth Elevation

Earthquake Activity

City Distance Mag. Time & Date
Minimum magnitude displayed is 2.5.

Coastal Water Temperatures

Place Temperature

Stations

Nearby Weather Stations

Station Location Temp. Windchill Dew Point Humidity Wind Precip. Elev Updated Type
                   

Watches & Warnings

There are currently no watches in effect.